sensor_id;sensor_type;location;lat;lon;timestamp;P1;durP1;ratioP1;P2;durP2;ratioP2
2538;SDS011;1280;49.760;9.664;2024-03-23T00:52:01;20.40;;;14.30;;
2538;SDS011;1280;49.760;9.664;2024-03-23T00:54:29;38.87;;;25.27;;
2538;SDS011;1280;49.760;9.664;2024-03-23T00:56:57;31.23;;;22.63;;
2538;SDS011;1280;49.760;9.664;2024-03-23T00:59:31;28.20;;;19.33;;
2538;SDS011;1280;49.760;9.664;2024-03-23T01:02:01;23.13;;;16.30;;
2538;SDS011;1280;49.760;9.664;2024-03-23T01:04:30;23.10;;;14.87;;
2538;SDS011;1280;49.760;9.664;2024-03-23T01:07:10;19.57;;;13.70;;
2538;SDS011;1280;49.760;9.664;2024-03-23T01:09:38;22.00;;;12.50;;
2538;SDS011;1280;49.760;9.664;2024-03-23T01:12:07;19.97;;;12.33;;
2538;SDS011;1280;49.760;9.664;2024-03-23T01:14:34;19.63;;;11.90;;
2538;SDS011;1280;49.760;9.664;2024-03-23T01:17:08;19.77;;;12.40;;
2538;SDS011;1280;49.760;9.664;2024-03-23T01:19:36;21.93;;;15.07;;
2538;SDS011;1280;49.760;9.664;2024-03-23T01:22:10;21.63;;;13.53;;
2538;SDS011;1280;49.760;9.664;2024-03-23T01:24:37;26.10;;;15.00;;
2538;SDS011;1280;49.760;9.664;2024-03-23T01:27:06;57.20;;;34.30;;
2538;SDS011;1280;49.760;9.664;2024-03-23T01:29:41;46.27;;;27.13;;
2538;SDS011;1280;49.760;9.664;2024-03-23T01:32:10;28.93;;;17.77;;
2538;SDS011;1280;49.760;9.664;2024-03-23T01:34:37;28.03;;;15.07;;
2538;SDS011;1280;49.760;9.664;2024-03-23T01:37:05;20.70;;;14.10;;
2538;SDS011;1280;49.760;9.664;2024-03-23T01:39:35;18.80;;;13.77;;
2538;SDS011;1280;49.760;9.664;2024-03-23T01:42:07;22.53;;;14.57;;
2538;SDS011;1280;49.760;9.664;2024-03-23T01:44:40;20.07;;;12.53;;
2538;SDS011;1280;49.760;9.664;2024-03-23T01:47:34;20.77;;;13.40;;
2538;SDS011;1280;49.760;9.664;2024-03-23T01:50:00;20.47;;;14.10;;
2538;SDS011;1280;49.760;9.664;2024-03-23T01:52:29;19.70;;;12.90;;
2538;SDS011;1280;49.760;9.664;2024-03-23T01:55:03;19.43;;;13.33;;
2538;SDS011;1280;49.760;9.664;2024-03-23T01:57:34;20.10;;;13.30;;
2538;SDS011;1280;49.760;9.664;2024-03-23T02:00:03;18.20;;;12.70;;
2538;SDS011;1280;49.760;9.664;2024-03-23T02:02:41;16.47;;;11.80;;
2538;SDS011;1280;49.760;9.664;2024-03-23T02:05:11;21.40;;;12.47;;
2538;SDS011;1280;49.760;9.664;2024-03-23T02:07:39;16.50;;;12.33;;
2538;SDS011;1280;49.760;9.664;2024-03-23T02:10:13;17.53;;;13.37;;
2538;SDS011;1280;49.760;9.664;2024-03-23T02:12:40;22.03;;;11.90;;
2538;SDS011;1280;49.760;9.664;2024-03-23T02:15:08;22.87;;;11.80;;
2538;SDS011;1280;49.760;9.664;2024-03-23T02:17:37;14.73;;;11.00;;
2538;SDS011;1280;49.760;9.664;2024-03-23T02:20:10;20.03;;;11.00;;
2538;SDS011;1280;49.760;9.664;2024-03-23T02:22:46;16.07;;;10.97;;
2538;SDS011;1280;49.760;9.664;2024-03-23T02:25:18;16.00;;;11.90;;
2538;SDS011;1280;49.760;9.664;2024-03-23T02:28:05;17.53;;;10.67;;
2538;SDS011;1280;49.760;9.664;2024-03-23T02:30:37;15.40;;;11.70;;
2538;SDS011;1280;49.760;9.664;2024-03-23T02:33:04;15.93;;;11.80;;
2538;SDS011;1280;49.760;9.664;2024-03-23T02:35:48;14.80;;;11.07;;
2538;SDS011;1280;49.760;9.664;2024-03-23T02:38:31;17.63;;;10.77;;
2538;SDS011;1280;49.760;9.664;2024-03-23T02:41:01;18.90;;;11.90;;
2538;SDS011;1280;49.760;9.664;2024-03-23T02:43:30;17.53;;;11.43;;
2538;SDS011;1280;49.760;9.664;2024-03-23T02:46:01;18.50;;;11.30;;
2538;SDS011;1280;49.760;9.664;2024-03-23T02:48:32;19.20;;;11.53;;
2538;SDS011;1280;49.760;9.664;2024-03-23T02:51:00;23.70;;;12.17;;
2538;SDS011;1280;49.760;9.664;2024-03-23T02:53:44;15.90;;;10.73;;
2538;SDS011;1280;49.760;9.664;2024-03-23T02:56:13;21.70;;;11.70;;
2538;SDS011;1280;49.760;9.664;2024-03-23T02:58:44;16.97;;;11.40;;
2538;SDS011;1280;49.760;9.664;2024-03-23T03:01:14;19.93;;;12.00;;
2538;SDS011;1280;49.760;9.664;2024-03-23T03:03:47;14.33;;;10.93;;
2538;SDS011;1280;49.760;9.664;2024-03-23T03:06:24;18.17;;;10.67;;
2538;SDS011;1280;49.760;9.664;2024-03-23T03:09:02;14.23;;;10.57;;
2538;SDS011;1280;49.760;9.664;2024-03-23T03:11:30;17.90;;;11.10;;
2538;SDS011;1280;49.760;9.664;2024-03-23T03:13:59;15.77;;;10.97;;
2538;SDS011;1280;49.760;9.664;2024-03-23T03:16:29;14.90;;;11.50;;
2538;SDS011;1280;49.760;9.664;2024-03-23T03:18:59;19.23;;;11.13;;
2538;SDS011;1280;49.760;9.664;2024-03-23T03:21:27;22.10;;;12.90;;
2538;SDS011;1280;49.760;9.664;2024-03-23T03:23:57;18.10;;;11.67;;
2538;SDS011;1280;49.760;9.664;2024-03-23T03:26:28;19.83;;;11.57;;
2538;SDS011;1280;49.760;9.664;2024-03-23T03:29:10;18.00;;;11.93;;
2538;SDS011;1280;49.760;9.664;2024-03-23T03:31:52;16.07;;;11.03;;
2538;SDS011;1280;49.760;9.664;2024-03-23T03:34:21;16.10;;;10.90;;
2538;SDS011;1280;49.760;9.664;2024-03-23T03:36:49;16.93;;;11.73;;
2538;SDS011;1280;49.760;9.664;2024-03-23T03:39:19;18.77;;;12.37;;
2538;SDS011;1280;49.760;9.664;2024-03-23T03:41:51;17.70;;;12.30;;
2538;SDS011;1280;49.760;9.664;2024-03-23T03:44:19;17.87;;;12.70;;
2538;SDS011;1280;49.760;9.664;2024-03-23T03:46:47;17.10;;;11.67;;
2538;SDS011;1280;49.760;9.664;2024-03-23T03:49:16;17.67;;;11.23;;
2538;SDS011;1280;49.760;9.664;2024-03-23T03:51:47;21.27;;;11.97;;
2538;SDS011;1280;49.760;9.664;2024-03-23T03:54:16;16.97;;;11.67;;
2538;SDS011;1280;49.760;9.664;2024-03-23T03:56:42;17.73;;;12.13;;
2538;SDS011;1280;49.760;9.664;2024-03-23T03:59:20;17.50;;;11.47;;
2538;SDS011;1280;49.760;9.664;2024-03-23T04:01:50;17.30;;;11.90;;
2538;SDS011;1280;49.760;9.664;2024-03-23T04:04:21;14.73;;;10.57;;
2538;SDS011;1280;49.760;9.664;2024-03-23T04:06:48;15.60;;;10.53;;
2538;SDS011;1280;49.760;9.664;2024-03-23T04:09:16;19.57;;;10.97;;
2538;SDS011;1280;49.760;9.664;2024-03-23T04:11:44;15.90;;;11.83;;
2538;SDS011;1280;49.760;9.664;2024-03-23T04:14:15;20.30;;;11.93;;
2538;SDS011;1280;49.760;9.664;2024-03-23T04:16:49;18.43;;;10.63;;
2538;SDS011;1280;49.760;9.664;2024-03-23T04:19:22;17.00;;;11.53;;
2538;SDS011;1280;49.760;9.664;2024-03-23T04:21:49;17.50;;;11.57;;
2538;SDS011;1280;49.760;9.664;2024-03-23T04:24:20;17.90;;;11.40;;
2538;SDS011;1280;49.760;9.664;2024-03-23T04:26:50;17.53;;;10.93;;
2538;SDS011;1280;49.760;9.664;2024-03-23T04:29:18;16.00;;;11.00;;
2538;SDS011;1280;49.760;9.664;2024-03-23T04:31:45;20.33;;;12.57;;
2538;SDS011;1280;49.760;9.664;2024-03-23T04:34:21;20.23;;;12.80;;
2538;SDS011;1280;49.760;9.664;2024-03-23T04:36:53;15.60;;;11.20;;
2538;SDS011;1280;49.760;9.664;2024-03-23T04:39:21;20.43;;;11.70;;
2538;SDS011;1280;49.760;9.664;2024-03-23T04:41:51;16.97;;;11.77;;
2538;SDS011;1280;49.760;9.664;2024-03-23T04:44:21;19.20;;;12.30;;
2538;SDS011;1280;49.760;9.664;2024-03-23T04:46:50;18.63;;;13.30;;
2538;SDS011;1280;49.760;9.664;2024-03-23T04:49:33;16.30;;;11.50;;
2538;SDS011;1280;49.760;9.664;2024-03-23T04:52:05;25.37;;;10.63;;
2538;SDS011;1280;49.760;9.664;2024-03-23T04:54:36;18.90;;;10.73;;
2538;SDS011;1280;49.760;9.664;2024-03-23T04:57:14;16.87;;;11.03;;
2538;SDS011;1280;49.760;9.664;2024-03-23T04:59:48;19.70;;;11.53;;
2538;SDS011;1280;49.760;9.664;2024-03-23T05:02:17;15.53;;;11.30;;
2538;SDS011;1280;49.760;9.664;2024-03-23T05:04:59;17.50;;;11.00;;
2538;SDS011;1280;49.760;9.664;2024-03-23T05:07:35;22.80;;;12.80;;
2538;SDS011;1280;49.760;9.664;2024-03-23T05:10:17;19.43;;;12.47;;
2538;SDS011;1280;49.760;9.664;2024-03-23T05:12:49;21.97;;;11.80;;
2538;SDS011;1280;49.760;9.664;2024-03-23T05:15:15;22.70;;;12.87;;
2538;SDS011;1280;49.760;9.664;2024-03-23T05:18:01;23.37;;;12.50;;
2538;SDS011;1280;49.760;9.664;2024-03-23T05:20:35;21.90;;;12.67;;
2538;SDS011;1280;49.760;9.664;2024-03-23T05:23:04;19.13;;;11.33;;
2538;SDS011;1280;49.760;9.664;2024-03-23T05:25:34;19.93;;;13.20;;
2538;SDS011;1280;49.760;9.664;2024-03-23T05:28:06;20.07;;;12.90;;
2538;SDS011;1280;49.760;9.664;2024-03-23T05:30:40;19.63;;;12.00;;
2538;SDS011;1280;49.760;9.664;2024-03-23T05:33:08;22.03;;;12.53;;
2538;SDS011;1280;49.760;9.664;2024-03-23T05:35:38;22.70;;;12.07;;
2538;SDS011;1280;49.760;9.664;2024-03-23T05:38:06;19.00;;;12.17;;
2538;SDS011;1280;49.760;9.664;2024-03-23T05:40:41;19.87;;;11.50;;
2538;SDS011;1280;49.760;9.664;2024-03-23T05:43:20;18.17;;;10.40;;
2538;SDS011;1280;49.760;9.664;2024-03-23T05:45:52;18.30;;;11.53;;
2538;SDS011;1280;49.760;9.664;2024-03-23T05:48:32;19.90;;;11.10;;
2538;SDS011;1280;49.760;9.664;2024-03-23T05:51:03;20.60;;;11.13;;
2538;SDS011;1280;49.760;9.664;2024-03-23T05:53:32;18.10;;;10.30;;
2538;SDS011;1280;49.760;9.664;2024-03-23T05:56:19;16.37;;;8.80;;
2538;SDS011;1280;49.760;9.664;2024-03-23T05:58:46;14.07;;;7.80;;
2538;SDS011;1280;49.760;9.664;2024-03-23T06:01:18;16.10;;;8.90;;
2538;SDS011;1280;49.760;9.664;2024-03-23T06:03:50;17.43;;;9.00;;
2538;SDS011;1280;49.760;9.664;2024-03-23T06:06:24;14.30;;;8.03;;
2538;SDS011;1280;49.760;9.664;2024-03-23T06:08:52;15.30;;;9.30;;
2538;SDS011;1280;49.760;9.664;2024-03-23T06:11:35;13.77;;;8.13;;
2538;SDS011;1280;49.760;9.664;2024-03-23T06:14:07;14.50;;;8.13;;
2538;SDS011;1280;49.760;9.664;2024-03-23T06:16:35;13.67;;;8.67;;
2538;SDS011;1280;49.760;9.664;2024-03-23T06:19:08;13.93;;;8.93;;
2538;SDS011;1280;49.760;9.664;2024-03-23T06:21:35;13.73;;;8.63;;
2538;SDS011;1280;49.760;9.664;2024-03-23T06:24:04;14.37;;;8.20;;
2538;SDS011;1280;49.760;9.664;2024-03-23T06:26:31;12.87;;;8.00;;
2538;SDS011;1280;49.760;9.664;2024-03-23T06:29:01;10.53;;;6.10;;
2538;SDS011;1280;49.760;9.664;2024-03-23T06:31:27;11.00;;;6.13;;
2538;SDS011;1280;49.760;9.664;2024-03-23T06:34:09;10.17;;;5.40;;
2538;SDS011;1280;49.760;9.664;2024-03-23T06:36:38;7.40;;;4.33;;
2538;SDS011;1280;49.760;9.664;2024-03-23T06:39:07;8.47;;;4.87;;
2538;SDS011;1280;49.760;9.664;2024-03-23T06:41:38;9.13;;;4.67;;
2538;SDS011;1280;49.760;9.664;2024-03-23T06:44:10;8.03;;;4.00;;
2538;SDS011;1280;49.760;9.664;2024-03-23T06:46:38;9.77;;;4.70;;
2538;SDS011;1280;49.760;9.664;2024-03-23T06:49:11;8.57;;;4.57;;
2538;SDS011;1280;49.760;9.664;2024-03-23T06:51:38;7.97;;;4.40;;
2538;SDS011;1280;49.760;9.664;2024-03-23T06:54:07;7.97;;;3.63;;
2538;SDS011;1280;49.760;9.664;2024-03-23T06:56:34;6.50;;;3.50;;
2538;SDS011;1280;49.760;9.664;2024-03-23T06:59:05;6.30;;;2.90;;
2538;SDS011;1280;49.760;9.664;2024-03-23T07:01:38;5.43;;;2.80;;
2538;SDS011;1280;49.760;9.664;2024-03-23T07:04:13;6.50;;;2.60;;
2538;SDS011;1280;49.760;9.664;2024-03-23T07:06:42;4.97;;;2.37;;
2538;SDS011;1280;49.760;9.664;2024-03-23T07:09:12;4.40;;;2.03;;
2538;SDS011;1280;49.760;9.664;2024-03-23T07:11:41;5.40;;;2.17;;
2538;SDS011;1280;49.760;9.664;2024-03-23T07:14:10;4.80;;;1.90;;
2538;SDS011;1280;49.760;9.664;2024-03-23T07:16:38;4.63;;;2.07;;
2538;SDS011;1280;49.760;9.664;2024-03-23T07:19:18;3.90;;;1.73;;
2538;SDS011;1280;49.760;9.664;2024-03-23T07:21:57;4.20;;;1.80;;
2538;SDS011;1280;49.760;9.664;2024-03-23T07:24:34;3.87;;;1.63;;
2538;SDS011;1280;49.760;9.664;2024-03-23T07:27:02;4.60;;;2.10;;
2538;SDS011;1280;49.760;9.664;2024-03-23T07:29:29;4.37;;;1.80;;
2538;SDS011;1280;49.760;9.664;2024-03-23T07:31:57;4.47;;;1.90;;
2538;SDS011;1280;49.760;9.664;2024-03-23T07:34:33;4.20;;;2.00;;
2538;SDS011;1280;49.760;9.664;2024-03-23T07:37:00;4.77;;;1.70;;
2538;SDS011;1280;49.760;9.664;2024-03-23T07:39:29;5.00;;;1.50;;
2538;SDS011;1280;49.760;9.664;2024-03-23T07:42:00;4.40;;;1.97;;
2538;SDS011;1280;49.760;9.664;2024-03-23T07:44:31;4.60;;;1.60;;
2538;SDS011;1280;49.760;9.664;2024-03-23T07:47:01;4.50;;;1.93;;
2538;SDS011;1280;49.760;9.664;2024-03-23T07:49:36;4.00;;;1.80;;
2538;SDS011;1280;49.760;9.664;2024-03-23T07:52:04;4.50;;;1.53;;
2538;SDS011;1280;49.760;9.664;2024-03-23T07:54:32;6.23;;;2.00;;
2538;SDS011;1280;49.760;9.664;2024-03-23T07:57:01;7.57;;;2.50;;
2538;SDS011;1280;49.760;9.664;2024-03-23T07:59:40;5.80;;;2.17;;
2538;SDS011;1280;49.760;9.664;2024-03-23T08:02:11;5.40;;;2.63;;
2538;SDS011;1280;49.760;9.664;2024-03-23T08:05:01;4.17;;;1.30;;
2538;SDS011;1280;49.760;9.664;2024-03-23T08:07:36;4.20;;;1.30;;
2538;SDS011;1280;49.760;9.664;2024-03-23T08:10:03;3.93;;;1.40;;
2538;SDS011;1280;49.760;9.664;2024-03-23T08:12:32;3.57;;;1.10;;
2538;SDS011;1280;49.760;9.664;2024-03-23T08:15:00;3.97;;;1.00;;
2538;SDS011;1280;49.760;9.664;2024-03-23T08:17:31;3.40;;;0.90;;
2538;SDS011;1280;49.760;9.664;2024-03-23T08:20:01;4.47;;;1.10;;
2538;SDS011;1280;49.760;9.664;2024-03-23T08:22:35;3.67;;;1.03;;
2538;SDS011;1280;49.760;9.664;2024-03-23T08:25:06;4.40;;;0.80;;
2538;SDS011;1280;49.760;9.664;2024-03-23T08:27:36;4.43;;;1.20;;
2538;SDS011;1280;49.760;9.664;2024-03-23T08:30:03;3.33;;;1.00;;
2538;SDS011;1280;49.760;9.664;2024-03-23T08:32:32;3.80;;;0.80;;
2538;SDS011;1280;49.760;9.664;2024-03-23T08:35:14;3.87;;;0.83;;
2538;SDS011;1280;49.760;9.664;2024-03-23T08:37:43;3.53;;;1.00;;
2538;SDS011;1280;49.760;9.664;2024-03-23T08:40:10;5.17;;;1.53;;
2538;SDS011;1280;49.760;9.664;2024-03-23T08:42:51;4.67;;;1.10;;
2538;SDS011;1280;49.760;9.664;2024-03-23T08:45:28;3.90;;;1.23;;
2538;SDS011;1280;49.760;9.664;2024-03-23T08:47:55;4.00;;;1.10;;
2538;SDS011;1280;49.760;9.664;2024-03-23T08:50:27;3.70;;;1.17;;
2538;SDS011;1280;49.760;9.664;2024-03-23T08:52:55;3.60;;;1.00;;
2538;SDS011;1280;49.760;9.664;2024-03-23T08:55:25;4.23;;;1.50;;
2538;SDS011;1280;49.760;9.664;2024-03-23T08:57:54;3.93;;;1.20;;
2538;SDS011;1280;49.760;9.664;2024-03-23T09:00:29;4.20;;;1.40;;
2538;SDS011;1280;49.760;9.664;2024-03-23T09:02:58;5.50;;;1.60;;
2538;SDS011;1280;49.760;9.664;2024-03-23T09:05:31;3.70;;;1.30;;
2538;SDS011;1280;49.760;9.664;2024-03-23T09:08:05;17.40;;;2.60;;
2538;SDS011;1280;49.760;9.664;2024-03-23T09:10:38;7.97;;;2.63;;
2538;SDS011;1280;49.760;9.664;2024-03-23T09:13:10;4.53;;;1.97;;
2538;SDS011;1280;49.760;9.664;2024-03-23T09:15:46;7.10;;;1.60;;
2538;SDS011;1280;49.760;9.664;2024-03-23T09:18:15;5.60;;;1.80;;
2538;SDS011;1280;49.760;9.664;2024-03-23T09:20:48;7.07;;;2.67;;
2538;SDS011;1280;49.760;9.664;2024-03-23T09:23:14;7.23;;;2.30;;
2538;SDS011;1280;49.760;9.664;2024-03-23T09:25:43;5.90;;;1.90;;
2538;SDS011;1280;49.760;9.664;2024-03-23T09:28:12;7.07;;;2.20;;
2538;SDS011;1280;49.760;9.664;2024-03-23T09:30:48;8.07;;;2.67;;
2538;SDS011;1280;49.760;9.664;2024-03-23T09:33:17;6.30;;;2.20;;
2538;SDS011;1280;49.760;9.664;2024-03-23T09:35:51;6.40;;;2.07;;
2538;SDS011;1280;49.760;9.664;2024-03-23T09:38:22;5.73;;;2.10;;
2538;SDS011;1280;49.760;9.664;2024-03-23T09:40:54;7.83;;;2.40;;
2538;SDS011;1280;49.760;9.664;2024-03-23T09:43:23;5.13;;;1.80;;
2538;SDS011;1280;49.760;9.664;2024-03-23T09:45:53;5.93;;;1.90;;
2538;SDS011;1280;49.760;9.664;2024-03-23T09:48:21;9.90;;;2.70;;
2538;SDS011;1280;49.760;9.664;2024-03-23T09:51:00;9.73;;;2.70;;
2538;SDS011;1280;49.760;9.664;2024-03-23T09:53:32;8.50;;;2.80;;
2538;SDS011;1280;49.760;9.664;2024-03-23T09:56:03;6.80;;;2.63;;
2538;SDS011;1280;49.760;9.664;2024-03-23T09:58:31;6.87;;;2.63;;
2538;SDS011;1280;49.760;9.664;2024-03-23T10:01:01;7.07;;;2.80;;
2538;SDS011;1280;49.760;9.664;2024-03-23T10:03:31;7.43;;;3.13;;
2538;SDS011;1280;49.760;9.664;2024-03-23T10:06:14;8.13;;;3.60;;
2538;SDS011;1280;49.760;9.664;2024-03-23T10:08:52;9.93;;;4.00;;
2538;SDS011;1280;49.760;9.664;2024-03-23T10:11:21;12.43;;;4.40;;
2538;SDS011;1280;49.760;9.664;2024-03-23T10:13:48;11.53;;;3.90;;
2538;SDS011;1280;49.760;9.664;2024-03-23T10:16:25;9.03;;;3.53;;
2538;SDS011;1280;49.760;9.664;2024-03-23T10:18:54;11.93;;;3.73;;
2538;SDS011;1280;49.760;9.664;2024-03-23T10:21:27;14.47;;;5.10;;
2538;SDS011;1280;49.760;9.664;2024-03-23T10:23:57;8.73;;;4.03;;
2538;SDS011;1280;49.760;9.664;2024-03-23T10:26:40;13.70;;;3.53;;
2538;SDS011;1280;49.760;9.664;2024-03-23T10:29:09;9.17;;;3.20;;
2538;SDS011;1280;49.760;9.664;2024-03-23T10:31:39;9.50;;;3.37;;
2538;SDS011;1280;49.760;9.664;2024-03-23T10:34:12;8.00;;;3.17;;
2538;SDS011;1280;49.760;9.664;2024-03-23T10:36:42;9.67;;;3.47;;
2538;SDS011;1280;49.760;9.664;2024-03-23T10:39:10;7.67;;;3.27;;
2538;SDS011;1280;49.760;9.664;2024-03-23T10:41:43;15.00;;;3.70;;
2538;SDS011;1280;49.760;9.664;2024-03-23T10:44:12;9.23;;;3.70;;
2538;SDS011;1280;49.760;9.664;2024-03-23T10:46:56;10.70;;;4.53;;
2538;SDS011;1280;49.760;9.664;2024-03-23T10:49:25;12.80;;;3.40;;
2538;SDS011;1280;49.760;9.664;2024-03-23T10:52:02;9.60;;;3.53;;
2538;SDS011;1280;49.760;9.664;2024-03-23T10:54:33;9.97;;;3.40;;
2538;SDS011;1280;49.760;9.664;2024-03-23T10:57:16;8.43;;;3.43;;
2538;SDS011;1280;49.760;9.664;2024-03-23T10:59:47;9.40;;;3.90;;
2538;SDS011;1280;49.760;9.664;2024-03-23T11:02:18;13.27;;;3.80;;
2538;SDS011;1280;49.760;9.664;2024-03-23T11:04:47;8.40;;;3.63;;
2538;SDS011;1280;49.760;9.664;2024-03-23T11:10:24;9.57;;;3.47;;
2538;SDS011;1280;49.760;9.664;2024-03-23T11:12:52;15.23;;;4.20;;
2538;SDS011;1280;49.760;9.664;2024-03-23T11:15:34;9.33;;;3.80;;
2538;SDS011;1280;49.760;9.664;2024-03-23T11:18:02;10.30;;;3.87;;
2538;SDS011;1280;49.760;9.664;2024-03-23T11:20:31;10.03;;;3.43;;
2538;SDS011;1280;49.760;9.664;2024-03-23T11:23:05;11.77;;;3.60;;
2538;SDS011;1280;49.760;9.664;2024-03-23T11:25:36;11.23;;;3.43;;
2538;SDS011;1280;49.760;9.664;2024-03-23T11:28:10;11.07;;;3.50;;
2538;SDS011;1280;49.760;9.664;2024-03-23T11:30:36;6.97;;;3.23;;
2538;SDS011;1280;49.760;9.664;2024-03-23T11:33:06;14.20;;;3.50;;
2538;SDS011;1280;49.760;9.664;2024-03-23T11:35:34;9.13;;;3.23;;
2538;SDS011;1280;49.760;9.664;2024-03-23T11:38:12;7.30;;;2.77;;
2538;SDS011;1280;49.760;9.664;2024-03-23T11:40:45;8.97;;;3.20;;
2538;SDS011;1280;49.760;9.664;2024-03-23T11:43:15;6.70;;;2.63;;
2538;SDS011;1280;49.760;9.664;2024-03-23T11:45:43;8.77;;;2.97;;
2538;SDS011;1280;49.760;9.664;2024-03-23T11:48:28;8.90;;;3.10;;
2538;SDS011;1280;49.760;9.664;2024-03-23T11:51:08;10.80;;;3.13;;
2538;SDS011;1280;49.760;9.664;2024-03-23T11:53:52;7.50;;;2.70;;
2538;SDS011;1280;49.760;9.664;2024-03-23T11:56:36;9.33;;;3.70;;
2538;SDS011;1280;49.760;9.664;2024-03-23T11:59:08;7.50;;;3.30;;
2538;SDS011;1280;49.760;9.664;2024-03-23T12:01:43;11.37;;;3.40;;
2538;SDS011;1280;49.760;9.664;2024-03-23T12:04:11;8.10;;;2.90;;
2538;SDS011;1280;49.760;9.664;2024-03-23T12:06:47;8.50;;;2.60;;
2538;SDS011;1280;49.760;9.664;2024-03-23T12:09:17;8.77;;;2.70;;
2538;SDS011;1280;49.760;9.664;2024-03-23T12:11:46;11.30;;;2.60;;
2538;SDS011;1280;49.760;9.664;2024-03-23T12:14:18;8.90;;;2.63;;
2538;SDS011;1280;49.760;9.664;2024-03-23T12:17:07;6.20;;;2.10;;
2538;SDS011;1280;49.760;9.664;2024-03-23T12:19:42;10.10;;;2.23;;
2538;SDS011;1280;49.760;9.664;2024-03-23T12:22:11;8.20;;;2.53;;
2538;SDS011;1280;49.760;9.664;2024-03-23T12:24:47;24.37;;;13.77;;
2538;SDS011;1280;49.760;9.664;2024-03-23T12:27:17;10.50;;;2.67;;
2538;SDS011;1280;49.760;9.664;2024-03-23T12:29:45;7.00;;;2.57;;
2538;SDS011;1280;49.760;9.664;2024-03-23T12:32:14;6.77;;;2.30;;
2538;SDS011;1280;49.760;9.664;2024-03-23T12:34:43;8.33;;;2.60;;
2538;SDS011;1280;49.760;9.664;2024-03-23T12:37:10;9.67;;;3.20;;
2538;SDS011;1280;49.760;9.664;2024-03-23T12:39:46;8.53;;;2.67;;
2538;SDS011;1280;49.760;9.664;2024-03-23T12:42:16;10.73;;;2.50;;
2538;SDS011;1280;49.760;9.664;2024-03-23T12:44:45;6.30;;;2.07;;
2538;SDS011;1280;49.760;9.664;2024-03-23T12:47:16;8.43;;;2.60;;
2538;SDS011;1280;49.760;9.664;2024-03-23T12:49:46;8.97;;;3.10;;
2538;SDS011;1280;49.760;9.664;2024-03-23T12:52:17;12.00;;;2.93;;
2538;SDS011;1280;49.760;9.664;2024-03-23T12:54:49;6.40;;;2.20;;
2538;SDS011;1280;49.760;9.664;2024-03-23T12:57:18;9.33;;;2.50;;
2538;SDS011;1280;49.760;9.664;2024-03-23T12:59:45;7.77;;;2.80;;
2538;SDS011;1280;49.760;9.664;2024-03-23T13:02:19;7.53;;;2.40;;
2538;SDS011;1280;49.760;9.664;2024-03-23T13:04:49;11.73;;;2.83;;
2538;SDS011;1280;49.760;9.664;2024-03-23T13:07:18;8.80;;;2.10;;
2538;SDS011;1280;49.760;9.664;2024-03-23T13:09:56;10.90;;;2.87;;
2538;SDS011;1280;49.760;9.664;2024-03-23T13:12:24;9.13;;;2.17;;
2538;SDS011;1280;49.760;9.664;2024-03-23T13:14:55;6.13;;;2.40;;
2538;SDS011;1280;49.760;9.664;2024-03-23T13:17:23;8.63;;;2.40;;
2538;SDS011;1280;49.760;9.664;2024-03-23T13:19:51;8.03;;;2.40;;
2538;SDS011;1280;49.760;9.664;2024-03-23T13:22:23;7.83;;;2.77;;
2538;SDS011;1280;49.760;9.664;2024-03-23T13:25:05;11.40;;;2.50;;
2538;SDS011;1280;49.760;9.664;2024-03-23T13:27:36;9.73;;;2.63;;
2538;SDS011;1280;49.760;9.664;2024-03-23T13:30:09;7.17;;;2.60;;
2538;SDS011;1280;49.760;9.664;2024-03-23T13:32:43;11.30;;;3.03;;
2538;SDS011;1280;49.760;9.664;2024-03-23T13:35:09;9.57;;;3.13;;
2538;SDS011;1280;49.760;9.664;2024-03-23T13:37:43;9.07;;;2.80;;
2538;SDS011;1280;49.760;9.664;2024-03-23T13:40:17;7.73;;;2.70;;
2538;SDS011;1280;49.760;9.664;2024-03-23T13:42:59;10.87;;;2.83;;
2538;SDS011;1280;49.760;9.664;2024-03-23T13:45:30;7.73;;;3.30;;
2538;SDS011;1280;49.760;9.664;2024-03-23T13:47:58;9.93;;;3.37;;
2538;SDS011;1280;49.760;9.664;2024-03-23T13:50:29;8.53;;;2.97;;
2538;SDS011;1280;49.760;9.664;2024-03-23T13:52:58;10.43;;;3.00;;
2538;SDS011;1280;49.760;9.664;2024-03-23T13:55:33;10.67;;;3.33;;
2538;SDS011;1280;49.760;9.664;2024-03-23T13:58:02;10.37;;;2.90;;
2538;SDS011;1280;49.760;9.664;2024-03-23T14:00:37;9.10;;;2.77;;
2538;SDS011;1280;49.760;9.664;2024-03-23T14:03:05;6.17;;;3.00;;
2538;SDS011;1280;49.760;9.664;2024-03-23T14:05:35;9.93;;;2.77;;
2538;SDS011;1280;49.760;9.664;2024-03-23T14:08:05;10.47;;;3.20;;
2538;SDS011;1280;49.760;9.664;2024-03-23T14:10:36;7.63;;;2.20;;
2538;SDS011;1280;49.760;9.664;2024-03-23T14:13:10;7.60;;;2.53;;
2538;SDS011;1280;49.760;9.664;2024-03-23T14:15:41;9.10;;;2.70;;
2538;SDS011;1280;49.760;9.664;2024-03-23T14:18:08;7.90;;;1.93;;
2538;SDS011;1280;49.760;9.664;2024-03-23T14:20:35;7.00;;;2.50;;
2538;SDS011;1280;49.760;9.664;2024-03-23T14:23:02;7.83;;;2.23;;
2538;SDS011;1280;49.760;9.664;2024-03-23T14:25:52;11.10;;;2.70;;
2538;SDS011;1280;49.760;9.664;2024-03-23T14:28:25;15.03;;;2.20;;
2538;SDS011;1280;49.760;9.664;2024-03-23T14:30:55;5.57;;;1.87;;
2538;SDS011;1280;49.760;9.664;2024-03-23T14:33:23;6.90;;;2.30;;
2538;SDS011;1280;49.760;9.664;2024-03-23T14:35:54;5.13;;;2.00;;
2538;SDS011;1280;49.760;9.664;2024-03-23T14:38:26;10.90;;;2.07;;
2538;SDS011;1280;49.760;9.664;2024-03-23T14:41:10;5.90;;;2.00;;
2538;SDS011;1280;49.760;9.664;2024-03-23T14:43:37;4.90;;;1.80;;
2538;SDS011;1280;49.760;9.664;2024-03-23T14:46:10;6.93;;;2.07;;
2538;SDS011;1280;49.760;9.664;2024-03-23T14:48:40;4.90;;;1.60;;
2538;SDS011;1280;49.760;9.664;2024-03-23T14:51:08;6.07;;;1.53;;
2538;SDS011;1280;49.760;9.664;2024-03-23T14:53:38;4.30;;;1.63;;
2538;SDS011;1280;49.760;9.664;2024-03-23T14:56:10;7.53;;;1.70;;
2538;SDS011;1280;49.760;9.664;2024-03-23T14:58:41;7.17;;;1.60;;
2538;SDS011;1280;49.760;9.664;2024-03-23T15:01:16;5.83;;;2.00;;
2538;SDS011;1280;49.760;9.664;2024-03-23T15:03:44;8.00;;;1.60;;
2538;SDS011;1280;49.760;9.664;2024-03-23T15:06:23;7.80;;;1.83;;
2538;SDS011;1280;49.760;9.664;2024-03-23T15:08:51;4.20;;;1.40;;
2538;SDS011;1280;49.760;9.664;2024-03-23T15:11:24;5.67;;;1.97;;
2538;SDS011;1280;49.760;9.664;2024-03-23T15:13:53;5.87;;;1.80;;
2538;SDS011;1280;49.760;9.664;2024-03-23T15:16:20;5.60;;;1.50;;
2538;SDS011;1280;49.760;9.664;2024-03-23T15:18:49;10.13;;;1.80;;
2538;SDS011;1280;49.760;9.664;2024-03-23T15:21:20;4.17;;;1.23;;
2538;SDS011;1280;49.760;9.664;2024-03-23T15:23:48;4.40;;;1.30;;
2538;SDS011;1280;49.760;9.664;2024-03-23T15:26:28;8.47;;;1.27;;
2538;SDS011;1280;49.760;9.664;2024-03-23T15:29:00;4.90;;;1.73;;
2538;SDS011;1280;49.760;9.664;2024-03-23T15:31:38;5.03;;;1.50;;
2538;SDS011;1280;49.760;9.664;2024-03-23T15:34:04;5.70;;;1.40;;
2538;SDS011;1280;49.760;9.664;2024-03-23T15:36:36;3.93;;;1.30;;
2538;SDS011;1280;49.760;9.664;2024-03-23T15:39:04;4.97;;;1.70;;
2538;SDS011;1280;49.760;9.664;2024-03-23T15:41:39;4.70;;;1.43;;
2538;SDS011;1280;49.760;9.664;2024-03-23T15:44:06;4.80;;;1.40;;
2538;SDS011;1280;49.760;9.664;2024-03-23T15:46:43;5.30;;;1.53;;
2538;SDS011;1280;49.760;9.664;2024-03-23T15:49:11;4.30;;;1.37;;
2538;SDS011;1280;49.760;9.664;2024-03-23T15:51:40;5.43;;;1.63;;
2538;SDS011;1280;49.760;9.664;2024-03-23T15:54:14;4.33;;;1.27;;
2538;SDS011;1280;49.760;9.664;2024-03-23T15:57:05;4.33;;;1.13;;
2538;SDS011;1280;49.760;9.664;2024-03-23T15:59:34;4.60;;;1.30;;
2538;SDS011;1280;49.760;9.664;2024-03-23T16:02:03;3.60;;;0.93;;
2538;SDS011;1280;49.760;9.664;2024-03-23T16:04:35;6.60;;;1.60;;
2538;SDS011;1280;49.760;9.664;2024-03-23T16:07:06;5.33;;;1.40;;
2538;SDS011;1280;49.760;9.664;2024-03-23T16:09:33;9.27;;;1.53;;
2538;SDS011;1280;49.760;9.664;2024-03-23T16:12:03;8.10;;;1.37;;
2538;SDS011;1280;49.760;9.664;2024-03-23T16:14:30;6.23;;;1.20;;
2538;SDS011;1280;49.760;9.664;2024-03-23T16:17:16;4.63;;;1.20;;
2538;SDS011;1280;49.760;9.664;2024-03-23T16:19:44;6.73;;;1.27;;
2538;SDS011;1280;49.760;9.664;2024-03-23T16:22:11;5.30;;;1.47;;
2538;SDS011;1280;49.760;9.664;2024-03-23T16:24:40;4.73;;;1.47;;
2538;SDS011;1280;49.760;9.664;2024-03-23T16:27:22;4.63;;;1.20;;